createdAt,value
2023-05-06T00:02:05.246Z,10.71
2023-05-06T00:04:38.514Z,10.71
2023-05-06T00:07:11.830Z,10.70
2023-05-06T00:09:44.013Z,10.66
2023-05-06T00:12:16.236Z,10.63
2023-05-06T00:14:51.108Z,10.60
2023-05-06T00:17:23.308Z,10.57
2023-05-06T00:19:56.195Z,10.56
2023-05-06T00:22:28.405Z,10.54
2023-05-06T00:25:00.553Z,10.51
2023-05-06T00:27:32.725Z,10.50
2023-05-06T00:30:05.036Z,10.49
2023-05-06T00:32:37.184Z,10.44
2023-05-06T00:35:10.969Z,10.41
2023-05-06T00:37:45.930Z,10.38
2023-05-06T00:40:18.395Z,10.34
2023-05-06T00:42:53.607Z,10.32
2023-05-06T00:45:26.788Z,10.31
2023-05-06T00:47:59.764Z,10.29
2023-05-06T00:50:33.320Z,10.25
2023-05-06T00:53:10.295Z,10.22
2023-05-06T00:55:42.584Z,10.19
2023-05-06T00:58:16.067Z,10.19
2023-05-06T01:00:52.368Z,10.19
2023-05-06T01:03:27.316Z,10.20
2023-05-06T01:06:08.932Z,10.20
2023-05-06T01:08:48.889Z,10.18
2023-05-06T01:11:35.349Z,10.17
2023-05-06T01:14:15.156Z,10.13
2023-05-06T01:16:49.351Z,10.13
2023-05-06T01:19:38.997Z,10.08
2023-05-06T01:22:12.819Z,10.04
2023-05-06T01:24:46.723Z,10.03
2023-05-06T01:27:19.634Z,10.02
2023-05-06T01:29:52.076Z,9.99
2023-05-06T01:32:35.037Z,9.99
2023-05-06T01:35:13.524Z,9.98
2023-05-06T01:37:53.603Z,9.96
2023-05-06T01:40:30.374Z,9.96
2023-05-06T01:43:03.806Z,9.95
2023-05-06T01:45:37.665Z,9.94
2023-05-06T01:48:10.871Z,9.95
2023-05-06T01:50:44.472Z,9.92
2023-05-06T01:53:16.601Z,9.91
2023-05-06T01:55:49.609Z,9.86
2023-05-06T01:58:22.326Z,9.81
2023-05-06T02:00:54.814Z,9.76
2023-05-06T02:03:27.057Z,9.73
2023-05-06T02:05:59.462Z,9.71
2023-05-06T02:08:32.511Z,9.69
2023-05-06T02:11:07.460Z,9.68
2023-05-06T02:13:40.030Z,9.67
2023-05-06T02:16:13.866Z,9.66
2023-05-06T02:18:46.140Z,9.66
2023-05-06T02:21:18.350Z,9.67
2023-05-06T02:23:50.813Z,9.70
2023-05-06T02:26:23.130Z,9.71
2023-05-06T02:28:55.497Z,9.73
2023-05-06T02:31:27.855Z,9.74
2023-05-06T02:33:59.992Z,9.76
2023-05-06T02:36:32.499Z,9.77
2023-05-06T02:39:05.728Z,9.80
2023-05-06T02:41:37.868Z,9.85
2023-05-06T02:44:10.052Z,9.88
2023-05-06T02:46:43.692Z,9.90
2023-05-06T02:49:20.575Z,9.92
2023-05-06T02:51:55.841Z,9.96
2023-05-06T02:54:28.353Z,9.99
2023-05-06T02:57:01.595Z,10.02
2023-05-06T02:59:33.694Z,10.06
2023-05-06T03:02:05.922Z,10.08
2023-05-06T03:04:38.393Z,10.09
2023-05-06T03:07:10.951Z,10.09
2023-05-06T03:09:43.090Z,10.12
2023-05-06T03:12:16.247Z,10.11
2023-05-06T03:14:48.460Z,10.12
2023-05-06T03:17:20.684Z,10.12
2023-05-06T03:19:53.365Z,10.12
2023-05-06T03:22:26.169Z,10.11
2023-05-06T03:24:58.496Z,10.11
2023-05-06T03:27:32.790Z,10.12
2023-05-06T03:30:09.732Z,10.13
2023-05-06T03:32:43.001Z,10.11
2023-05-06T03:35:17.237Z,10.13
2023-05-06T03:37:51.023Z,10.17
2023-05-06T03:40:24.259Z,10.19
2023-05-06T03:42:57.158Z,10.19
2023-05-06T03:45:29.743Z,10.19
2023-05-06T03:48:02.674Z,10.19
2023-05-06T03:50:35.928Z,10.15
2023-05-06T03:53:08.206Z,10.16
2023-05-06T03:55:40.664Z,10.15
2023-05-06T03:58:13.070Z,10.15
2023-05-06T04:00:46.195Z,10.12
2023-05-06T04:03:18.358Z,10.12
2023-05-06T04:05:53.074Z,10.12
2023-05-06T04:08:28.397Z,10.16
2023-05-06T04:11:07.085Z,10.17
2023-05-06T04:13:39.678Z,10.18
2023-05-06T04:16:16.426Z,10.25
2023-05-06T04:18:51.778Z,10.32
2023-05-06T04:21:24.622Z,10.37
2023-05-06T04:24:02.569Z,10.37
2023-05-06T04:26:40.246Z,10.35
2023-05-06T04:29:12.697Z,10.38
2023-05-06T04:31:51.570Z,10.41
2023-05-06T04:34:25.263Z,10.43
2023-05-06T04:36:58.268Z,10.42
2023-05-06T04:39:50.667Z,10.40
2023-05-06T04:42:24.287Z,10.41
2023-05-06T04:45:04.341Z,10.43
2023-05-06T04:47:37.302Z,10.47
2023-05-06T04:50:11.143Z,10.46
2023-05-06T04:52:43.264Z,10.47
2023-05-06T04:55:15.961Z,10.56
2023-05-06T04:57:51.865Z,10.62
2023-05-06T05:00:26.353Z,10.66
2023-05-06T05:02:58.936Z,10.66
2023-05-06T05:05:32.214Z,10.67
2023-05-06T05:08:04.572Z,10.68
2023-05-06T05:10:37.173Z,10.71
2023-05-06T05:13:09.760Z,10.76
2023-05-06T05:15:42.274Z,10.84
2023-05-06T05:18:14.742Z,10.89
2023-05-06T05:20:47.152Z,10.91
2023-05-06T05:23:20.958Z,10.91
2023-05-06T05:25:56.003Z,10.91
2023-05-06T05:28:28.732Z,10.96
2023-05-06T05:31:06.336Z,11.03
2023-05-06T05:33:42.545Z,11.08
2023-05-06T05:36:17.798Z,11.09
2023-05-06T05:38:50.358Z,11.13
2023-05-06T05:41:22.782Z,11.21
2023-05-06T05:43:55.366Z,11.28
2023-05-06T05:46:28.108Z,11.31
2023-05-06T05:49:01.124Z,11.37
2023-05-06T05:51:33.739Z,11.42
2023-05-06T05:54:07.171Z,11.52
2023-05-06T05:56:39.390Z,11.57
2023-05-06T05:59:14.778Z,11.67
2023-05-06T06:01:47.123Z,11.75
2023-05-06T06:04:19.575Z,11.78
2023-05-06T06:06:52.203Z,11.78
2023-05-06T06:09:25.017Z,11.78
2023-05-06T06:11:57.952Z,11.83
2023-05-06T06:14:30.444Z,11.88
2023-05-06T06:17:03.818Z,11.92
2023-05-06T06:19:36.025Z,11.93
2023-05-06T06:22:08.312Z,11.91
2023-05-06T06:24:41.187Z,11.91
2023-05-06T06:27:13.402Z,11.96
2023-05-06T06:29:45.760Z,12.02
2023-05-06T06:32:18.056Z,12.08
2023-05-06T06:34:50.481Z,12.15
2023-05-06T06:37:22.639Z,12.19
2023-05-06T06:39:54.841Z,12.26
2023-05-06T06:42:27.345Z,12.29
2023-05-06T06:45:16.985Z,12.31
2023-05-06T06:47:49.687Z,12.34
2023-05-06T06:50:22.275Z,12.41
2023-05-06T06:53:02.047Z,12.50
2023-05-06T06:55:38.571Z,12.61
2023-05-06T06:58:10.924Z,12.66
2023-05-06T07:00:42.962Z,12.69
2023-05-06T07:03:20.561Z,12.67
2023-05-06T07:05:52.787Z,12.69
2023-05-06T07:08:24.918Z,12.72
2023-05-06T07:10:59.911Z,12.74
2023-05-06T07:13:33.824Z,12.68
2023-05-06T07:16:10.252Z,12.66
2023-05-06T07:18:42.440Z,12.65
2023-05-06T07:21:14.526Z,12.67
2023-05-06T07:23:46.683Z,12.68
2023-05-06T07:26:18.816Z,12.67
2023-05-06T07:28:50.994Z,12.67
2023-05-06T07:31:23.231Z,12.72
2023-05-06T07:33:56.283Z,12.84
2023-05-06T07:36:28.832Z,12.91
2023-05-06T07:39:01.229Z,13.01
2023-05-06T07:41:33.390Z,13.06
2023-05-06T07:44:06.030Z,13.18
2023-05-06T07:46:38.536Z,13.28
2023-05-06T07:49:10.726Z,13.40
2023-05-06T07:51:46.053Z,13.47
2023-05-06T07:54:18.398Z,13.53
2023-05-06T07:56:50.452Z,13.62
2023-05-06T07:59:22.543Z,13.63
2023-05-06T08:01:54.585Z,13.61
2023-05-06T08:04:26.650Z,13.62
2023-05-06T08:06:58.725Z,13.58
2023-05-06T08:09:31.158Z,13.56
2023-05-06T08:12:03.227Z,13.62
2023-05-06T08:14:35.366Z,13.64
2023-05-06T08:17:07.478Z,13.65
2023-05-06T08:19:39.624Z,13.59
2023-05-06T08:22:11.765Z,13.51
2023-05-06T08:24:43.885Z,13.49
2023-05-06T08:27:16.008Z,13.53
2023-05-06T08:29:52.226Z,13.52
2023-05-06T08:32:24.770Z,13.49
2023-05-06T08:34:56.951Z,13.50
2023-05-06T08:37:30.593Z,13.55
2023-05-06T08:40:03.131Z,13.58
2023-05-06T08:42:37.973Z,13.59
2023-05-06T08:45:12.934Z,13.55
2023-05-06T08:47:45.191Z,13.53
2023-05-06T08:50:17.832Z,13.55
2023-05-06T08:52:51.930Z,13.58
2023-05-06T08:55:25.543Z,13.65
2023-05-06T08:58:01.491Z,13.74
2023-05-06T09:00:34.210Z,13.82
2023-05-06T09:03:06.851Z,13.90
2023-05-06T09:05:44.910Z,14.00
2023-05-06T09:08:17.181Z,14.04
2023-05-06T09:10:49.934Z,14.06
2023-05-06T09:13:22.276Z,14.04
2023-05-06T09:15:56.989Z,13.99
2023-05-06T09:18:29.362Z,13.99
2023-05-06T09:21:22.346Z,14.08
2023-05-06T09:23:57.273Z,14.12
2023-05-06T09:26:30.777Z,14.11
2023-05-06T09:29:03.341Z,14.18
2023-05-06T09:31:41.155Z,14.20
2023-05-06T09:34:14.334Z,14.19
2023-05-06T09:36:46.942Z,14.19
2023-05-06T09:39:19.121Z,14.21
2023-05-06T09:41:51.417Z,14.21
2023-05-06T09:44:26.144Z,14.14
2023-05-06T09:46:58.481Z,14.02
2023-05-06T09:49:30.653Z,13.92
2023-05-06T09:52:03.419Z,13.87
2023-05-06T09:54:36.800Z,13.87
2023-05-06T09:57:10.668Z,13.82
2023-05-06T09:59:44.390Z,13.79
2023-05-06T10:02:17.611Z,13.77
2023-05-06T10:04:51.816Z,13.73
2023-05-06T10:07:28.769Z,13.65
2023-05-06T10:10:02.130Z,13.59
2023-05-06T10:12:34.421Z,13.48
2023-05-06T10:15:08.292Z,13.37
2023-05-06T10:17:42.795Z,13.26
2023-05-06T10:20:18.370Z,13.19
2023-05-06T10:22:59.732Z,13.15
2023-05-06T10:25:36.570Z,13.07
2023-05-06T10:28:16.064Z,12.97
2023-05-06T10:31:05.852Z,12.85
2023-05-06T10:33:40.936Z,12.77
2023-05-06T10:36:25.360Z,12.71
2023-05-06T10:39:00.667Z,12.68
2023-05-06T10:41:33.476Z,12.61
2023-05-06T10:44:06.218Z,12.58
2023-05-06T10:47:01.617Z,12.57
2023-05-06T10:49:33.760Z,12.61
2023-05-06T10:52:17.114Z,12.65
2023-05-06T10:54:53.279Z,12.72
2023-05-06T10:57:27.211Z,12.80
2023-05-06T11:00:00.136Z,12.91
2023-05-06T11:02:32.980Z,12.99
2023-05-06T11:05:07.607Z,13.03
2023-05-06T11:07:39.954Z,13.04
2023-05-06T11:10:13.976Z,13.05
2023-05-06T11:12:53.084Z,13.06
2023-05-06T11:15:41.390Z,13.02
2023-05-06T11:18:40.363Z,13.06
2023-05-06T11:21:39.286Z,13.16
2023-05-06T11:24:15.061Z,13.14
2023-05-06T11:26:48.740Z,13.05
2023-05-06T11:29:21.884Z,12.98
2023-05-06T11:31:54.476Z,12.88
2023-05-06T11:34:29.056Z,12.80
2023-05-06T11:37:06.260Z,12.72
2023-05-06T11:39:40.935Z,12.69
2023-05-06T11:42:22.056Z,12.67
2023-05-06T11:44:56.558Z,12.63
2023-05-06T11:47:28.715Z,12.56
2023-05-06T11:50:06.943Z,12.54
2023-05-06T11:52:40.234Z,12.48
2023-05-06T11:55:14.473Z,12.41
2023-05-06T11:57:47.745Z,12.33
2023-05-06T12:00:21.445Z,12.34
2023-05-06T12:02:58.375Z,12.40
2023-05-06T12:05:31.142Z,12.49
2023-05-06T12:08:13.305Z,12.53
2023-05-06T12:10:53.482Z,12.50
2023-05-06T12:13:26.400Z,12.48
2023-05-06T12:15:59.956Z,12.46
2023-05-06T12:18:33.434Z,12.40
2023-05-06T12:21:06.041Z,12.34
2023-05-06T12:23:38.236Z,12.29
2023-05-06T12:26:10.521Z,12.29
2023-05-06T12:28:43.714Z,12.35
2023-05-06T12:31:23.305Z,12.41
2023-05-06T12:33:57.124Z,12.47
2023-05-06T12:36:30.277Z,12.49
2023-05-06T12:39:03.516Z,12.48
2023-05-06T12:41:42.960Z,12.47
2023-05-06T12:44:35.214Z,12.40
2023-05-06T12:47:09.051Z,12.35
2023-05-06T12:49:52.169Z,12.35
2023-05-06T12:52:25.525Z,12.37
2023-05-06T12:54:58.135Z,12.40
2023-05-06T12:57:30.422Z,12.47
2023-05-06T13:00:17.589Z,12.54
2023-05-06T13:03:19.256Z,12.63
2023-05-06T13:05:51.992Z,12.71
2023-05-06T13:08:24.264Z,12.73
2023-05-06T13:10:56.453Z,12.71
2023-05-06T13:13:28.904Z,12.67
2023-05-06T13:16:01.665Z,12.67
2023-05-06T13:18:34.310Z,12.63
2023-05-06T13:21:06.852Z,12.61
2023-05-06T13:23:41.837Z,12.59
2023-05-06T13:26:17.418Z,12.60
2023-05-06T13:28:49.759Z,12.64
2023-05-06T13:31:23.375Z,12.65
2023-05-06T13:33:55.791Z,12.69
2023-05-06T13:36:28.461Z,12.74
2023-05-06T13:39:04.294Z,12.76
2023-05-06T13:41:36.534Z,12.81
2023-05-06T13:44:10.641Z,12.84
2023-05-06T13:46:44.850Z,12.84
2023-05-06T13:49:19.399Z,12.86
2023-05-06T13:51:53.091Z,12.89
2023-05-06T13:54:25.231Z,12.89
2023-05-06T13:56:58.339Z,12.90
2023-05-06T13:59:31.188Z,12.92
2023-05-06T14:02:06.429Z,12.92
2023-05-06T14:04:41.217Z,12.94
2023-05-06T14:07:15.769Z,12.95
2023-05-06T14:09:47.903Z,12.97
2023-05-06T14:12:20.053Z,12.96
2023-05-06T14:14:52.212Z,12.96
2023-05-06T14:17:24.489Z,12.95
2023-05-06T14:19:56.665Z,12.97
2023-05-06T14:22:30.164Z,12.95
2023-05-06T14:25:02.287Z,12.92
2023-05-06T14:27:34.471Z,12.95
2023-05-06T14:30:09.691Z,12.96
2023-05-06T14:32:42.235Z,12.95
2023-05-06T14:35:14.509Z,12.98
2023-05-06T14:37:46.654Z,13.01
2023-05-06T14:40:19.405Z,13.03
2023-05-06T14:42:51.948Z,13.00
2023-05-06T14:45:24.509Z,12.98
2023-05-06T14:47:59.836Z,12.99
2023-05-06T14:50:32.407Z,12.97
2023-05-06T14:53:04.526Z,12.92
2023-05-06T14:55:37.523Z,12.87
2023-05-06T14:58:09.592Z,12.86
2023-05-06T15:00:41.628Z,12.83
2023-05-06T15:03:13.982Z,12.83
2023-05-06T15:05:46.192Z,12.84
2023-05-06T15:08:18.376Z,12.90
2023-05-06T15:10:50.839Z,12.93
2023-05-06T15:13:23.713Z,12.98
2023-05-06T15:15:55.934Z,13.02
2023-05-06T15:18:28.230Z,13.03
2023-05-06T15:21:01.677Z,13.06
2023-05-06T15:23:33.994Z,13.10
2023-05-06T15:26:06.115Z,13.17
2023-05-06T15:28:38.321Z,13.19
2023-05-06T15:31:10.468Z,13.19
2023-05-06T15:33:42.677Z,13.19
2023-05-06T15:36:14.924Z,13.19
2023-05-06T15:39:01.465Z,13.21
2023-05-06T15:41:35.075Z,13.24
2023-05-06T15:44:09.962Z,13.24
2023-05-06T15:46:42.426Z,13.23
2023-05-06T15:49:46.630Z,13.21
2023-05-06T15:52:07.317Z,13.18
2023-05-06T15:54:39.990Z,13.16
2023-05-06T15:57:14.872Z,13.18
2023-05-06T15:59:48.214Z,13.16
2023-05-06T16:02:26.431Z,13.16
2023-05-06T16:04:59.723Z,13.18
2023-05-06T16:07:32.007Z,13.25
2023-05-06T16:10:04.180Z,13.23
2023-05-06T16:12:36.480Z,13.19
2023-05-06T16:15:10.521Z,13.18
2023-05-06T16:17:42.665Z,13.23
2023-05-06T16:20:15.557Z,13.27
2023-05-06T16:22:52.151Z,13.28
2023-05-06T16:25:24.231Z,13.26
2023-05-06T16:27:56.310Z,13.26
2023-05-06T16:30:28.336Z,13.28
2023-05-06T16:33:00.656Z,13.29
2023-05-06T16:35:32.769Z,13.32
2023-05-06T16:38:04.861Z,13.28
2023-05-06T16:40:43.635Z,13.22
2023-05-06T16:43:16.043Z,13.18
2023-05-06T16:45:48.173Z,13.15
2023-05-06T16:48:20.303Z,13.13
2023-05-06T16:50:53.078Z,13.13
2023-05-06T16:53:27.792Z,13.11
2023-05-06T16:56:03.088Z,13.14
2023-05-06T16:58:35.723Z,13.19
2023-05-06T17:01:08.751Z,13.18
2023-05-06T17:03:41.189Z,13.14
2023-05-06T17:06:13.298Z,13.16
2023-05-06T17:08:45.387Z,13.17
2023-05-06T17:11:17.777Z,13.17
2023-05-06T17:13:49.878Z,13.17
2023-05-06T17:16:22.254Z,13.09
2023-05-06T17:18:54.731Z,13.05
2023-05-06T17:21:27.935Z,13.04
2023-05-06T17:24:01.229Z,12.98
2023-05-06T17:26:34.976Z,12.94
2023-05-06T17:29:08.594Z,12.88
2023-05-06T17:31:41.061Z,12.87
2023-05-06T17:34:13.118Z,12.82
2023-05-06T17:36:45.643Z,12.81
2023-05-06T17:39:18.150Z,12.78
2023-05-06T17:41:50.440Z,12.74
2023-05-06T17:44:22.866Z,12.73
2023-05-06T17:46:54.929Z,12.74
2023-05-06T17:49:27.092Z,12.71
2023-05-06T17:51:59.509Z,12.69
2023-05-06T17:54:34.876Z,12.65
2023-05-06T17:57:07.319Z,12.59
2023-05-06T17:59:39.538Z,12.53
2023-05-06T18:02:15.823Z,12.48
2023-05-06T18:04:48.468Z,12.39
2023-05-06T18:07:20.724Z,12.32
2023-05-06T18:09:53.342Z,12.32
2023-05-06T18:12:28.798Z,12.35
2023-05-06T18:15:01.461Z,12.33
2023-05-06T18:17:34.349Z,12.29
2023-05-06T18:20:08.361Z,12.27
2023-05-06T18:22:43.289Z,12.24
2023-05-06T18:25:16.146Z,12.16
2023-05-06T18:27:48.624Z,12.12
2023-05-06T18:30:20.964Z,12.09
2023-05-06T18:32:56.897Z,12.02
2023-05-06T18:35:39.641Z,11.97
2023-05-06T18:38:13.455Z,11.92
2023-05-06T18:40:46.466Z,11.88
2023-05-06T18:43:23.262Z,11.84
2023-05-06T18:45:56.910Z,11.78
2023-05-06T18:48:32.099Z,11.74
2023-05-06T18:51:18.938Z,11.73
2023-05-06T18:54:02.034Z,11.72
2023-05-06T18:56:34.694Z,11.69
2023-05-06T18:59:07.303Z,11.66
2023-05-06T19:01:39.348Z,11.63
2023-05-06T19:04:12.710Z,11.64
2023-05-06T19:06:46.829Z,11.62
2023-05-06T19:09:20.921Z,11.60
2023-05-06T19:11:53.022Z,11.58
2023-05-06T19:14:28.259Z,11.58
2023-05-06T19:17:01.808Z,11.55
2023-05-06T19:19:36.936Z,11.51
2023-05-06T19:22:09.644Z,11.50
2023-05-06T19:24:43.306Z,11.46
2023-05-06T19:27:18.639Z,11.38
2023-05-06T19:29:52.570Z,11.28
2023-05-06T19:32:24.811Z,11.26
2023-05-06T19:35:05.853Z,11.22
2023-05-06T19:37:40.863Z,11.16
2023-05-06T19:40:14.142Z,11.11
2023-05-06T19:42:46.512Z,11.11
2023-05-06T19:45:19.599Z,11.02
2023-05-06T19:47:52.002Z,10.93
2023-05-06T19:50:24.561Z,10.86
2023-05-06T19:52:56.748Z,10.80
2023-05-06T19:55:28.828Z,10.77
2023-05-06T19:58:01.538Z,10.77
2023-05-06T20:00:33.777Z,10.76
2023-05-06T20:03:06.187Z,10.75
2023-05-06T20:05:40.661Z,10.70
2023-05-06T20:08:13.802Z,10.67
2023-05-06T20:10:45.856Z,10.65
2023-05-06T20:13:18.707Z,10.63
2023-05-06T20:15:52.879Z,10.55
2023-05-06T20:18:25.330Z,10.45
2023-05-06T20:20:57.671Z,10.38
2023-05-06T20:23:30.783Z,10.32
2023-05-06T20:26:05.783Z,10.30
2023-05-06T20:28:39.306Z,10.24
2023-05-06T20:31:11.565Z,10.20
2023-05-06T20:33:44.589Z,10.21
2023-05-06T20:36:16.759Z,10.18
2023-05-06T20:38:53.992Z,10.11
2023-05-06T20:41:27.035Z,10.06
2023-05-06T20:43:59.373Z,10.03
2023-05-06T20:46:34.463Z,10.00
2023-05-06T20:49:07.530Z,9.99
2023-05-06T20:51:42.057Z,9.99
2023-05-06T20:54:14.462Z,9.97
2023-05-06T20:56:46.752Z,9.96
2023-05-06T20:59:18.954Z,9.95
2023-05-06T21:01:51.700Z,9.92
2023-05-06T21:04:24.430Z,9.88
2023-05-06T21:07:00.467Z,9.86
2023-05-06T21:09:38.253Z,9.84
2023-05-06T21:12:12.893Z,9.89
2023-05-06T21:14:45.016Z,9.88
2023-05-06T21:17:19.493Z,9.85
2023-05-06T21:19:53.381Z,9.81
2023-05-06T21:22:26.081Z,9.77
2023-05-06T21:25:00.426Z,9.73
2023-05-06T21:27:33.694Z,9.73
2023-05-06T21:30:06.676Z,9.73
2023-05-06T21:32:38.990Z,9.72
2023-05-06T21:35:13.486Z,9.74
2023-05-06T21:37:46.737Z,9.76
2023-05-06T21:40:21.569Z,9.74
2023-05-06T21:42:54.742Z,9.73
2023-05-06T21:45:28.441Z,9.69
2023-05-06T21:48:03.148Z,9.67
2023-05-06T21:50:37.100Z,9.66
2023-05-06T21:53:15.126Z,9.66
2023-05-06T21:55:52.052Z,9.69
2023-05-06T21:58:27.733Z,9.71
2023-05-06T22:01:05.765Z,9.70
2023-05-06T22:03:42.599Z,9.70
2023-05-06T22:06:23.699Z,9.68
2023-05-06T22:08:59.807Z,9.66
2023-05-06T22:11:41.017Z,9.66
2023-05-06T22:14:16.158Z,9.66
2023-05-06T22:16:52.770Z,9.66
2023-05-06T22:19:24.946Z,9.64
2023-05-06T22:21:57.673Z,9.65
2023-05-06T22:24:30.907Z,9.67
2023-05-06T22:27:03.175Z,9.65
2023-05-06T22:29:36.157Z,9.64
2023-05-06T22:32:08.811Z,9.65
2023-05-06T22:34:45.964Z,9.63
2023-05-06T22:37:18.142Z,9.62
2023-05-06T22:39:50.892Z,9.59
2023-05-06T22:42:23.443Z,9.59
2023-05-06T22:44:55.579Z,9.59
2023-05-06T22:47:28.346Z,9.62
2023-05-06T22:50:00.527Z,9.62
2023-05-06T22:52:33.005Z,9.61
2023-05-06T22:55:05.961Z,9.59
2023-05-06T22:57:38.731Z,9.56
2023-05-06T23:00:13.847Z,9.54
2023-05-06T23:02:46.333Z,9.53
2023-05-06T23:05:18.584Z,9.53
2023-05-06T23:07:50.779Z,9.52
2023-05-06T23:10:25.127Z,9.52
2023-05-06T23:12:57.813Z,9.51
2023-05-06T23:15:30.383Z,9.51
2023-05-06T23:18:02.625Z,9.52
2023-05-06T23:20:34.951Z,9.48
2023-05-06T23:23:10.648Z,9.47
2023-05-06T23:25:42.970Z,9.50
2023-05-06T23:28:15.292Z,9.50
2023-05-06T23:30:47.639Z,9.47
2023-05-06T23:33:19.887Z,9.47
2023-05-06T23:35:52.074Z,9.48
2023-05-06T23:38:24.188Z,9.48
2023-05-06T23:40:56.584Z,9.49
2023-05-06T23:43:28.700Z,9.48
2023-05-06T23:49:15.624Z,9.42
2023-05-06T23:51:50.556Z,9.35
2023-05-06T23:54:23.069Z,9.30
2023-05-06T23:56:55.843Z,9.24
2023-05-06T23:59:30.661Z,9.18
